sensor_id;sensor_type;location;lat;lon;timestamp;temperature;humidity
19813;DHT22;10066;48.108;11.448;2022-10-31T00:00:32;10.60;99.90
19813;DHT22;10066;48.108;11.448;2022-10-31T00:02:59;10.50;99.90
19813;DHT22;10066;48.108;11.448;2022-10-31T00:05:27;10.50;99.90
19813;DHT22;10066;48.108;11.448;2022-10-31T00:07:54;10.50;99.90
19813;DHT22;10066;48.108;11.448;2022-10-31T00:10:22;10.50;99.90
19813;DHT22;10066;48.108;11.448;2022-10-31T00:12:49;10.50;99.90
19813;DHT22;10066;48.108;11.448;2022-10-31T00:15:16;10.50;99.90
19813;DHT22;10066;48.108;11.448;2022-10-31T00:17:43;10.50;99.90
19813;DHT22;10066;48.108;11.448;2022-10-31T00:20:10;10.50;99.90
19813;DHT22;10066;48.108;11.448;2022-10-31T00:22:39;10.40;99.90
19813;DHT22;10066;48.108;11.448;2022-10-31T00:25:06;10.40;99.90
19813;DHT22;10066;48.108;11.448;2022-10-31T00:27:33;10.40;99.90
19813;DHT22;10066;48.108;11.448;2022-10-31T00:30:00;10.30;99.90
19813;DHT22;10066;48.108;11.448;2022-10-31T00:32:28;10.30;99.90
19813;DHT22;10066;48.108;11.448;2022-10-31T00:34:55;10.30;99.90
19813;DHT22;10066;48.108;11.448;2022-10-31T00:37:22;10.30;99.90
19813;DHT22;10066;48.108;11.448;2022-10-31T00:39:51;10.20;99.90
19813;DHT22;10066;48.108;11.448;2022-10-31T00:42:18;10.20;99.90
19813;DHT22;10066;48.108;11.448;2022-10-31T00:44:45;10.10;99.90
19813;DHT22;10066;48.108;11.448;2022-10-31T00:47:12;10.10;99.90
19813;DHT22;10066;48.108;11.448;2022-10-31T00:49:39;10.00;99.90
19813;DHT22;10066;48.108;11.448;2022-10-31T00:52:07;10.00;99.90
19813;DHT22;10066;48.108;11.448;2022-10-31T00:54:34;10.00;99.90
19813;DHT22;10066;48.108;11.448;2022-10-31T00:57:02;10.00;99.90
19813;DHT22;10066;48.108;11.448;2022-10-31T00:59:29;10.00;99.90
19813;DHT22;10066;48.108;11.448;2022-10-31T01:01:57;9.90;99.90
19813;DHT22;10066;48.108;11.448;2022-10-31T01:04:24;9.90;99.90
19813;DHT22;10066;48.108;11.448;2022-10-31T01:06:51;9.90;99.90
19813;DHT22;10066;48.108;11.448;2022-10-31T01:09:18;9.90;99.90
19813;DHT22;10066;48.108;11.448;2022-10-31T01:11:45;9.80;99.90
19813;DHT22;10066;48.108;11.448;2022-10-31T01:14:14;9.90;99.90
19813;DHT22;10066;48.108;11.448;2022-10-31T01:16:41;9.80;99.90
19813;DHT22;10066;48.108;11.448;2022-10-31T01:19:08;9.80;99.90
19813;DHT22;10066;48.108;11.448;2022-10-31T01:21:35;9.70;99.90
19813;DHT22;10066;48.108;11.448;2022-10-31T01:24:03;9.70;99.90
19813;DHT22;10066;48.108;11.448;2022-10-31T01:26:31;9.70;99.90
19813;DHT22;10066;48.108;11.448;2022-10-31T01:29:00;9.70;99.90
19813;DHT22;10066;48.108;11.448;2022-10-31T01:31:31;9.60;99.90
19813;DHT22;10066;48.108;11.448;2022-10-31T01:33:59;9.60;99.90
19813;DHT22;10066;48.108;11.448;2022-10-31T01:36:28;9.60;99.90
19813;DHT22;10066;48.108;11.448;2022-10-31T01:38:57;9.60;99.90
19813;DHT22;10066;48.108;11.448;2022-10-31T01:41:26;9.60;99.90
19813;DHT22;10066;48.108;11.448;2022-10-31T01:43:55;9.50;99.90
19813;DHT22;10066;48.108;11.448;2022-10-31T01:46:24;9.50;99.90
19813;DHT22;10066;48.108;11.448;2022-10-31T01:48:55;9.50;99.90
19813;DHT22;10066;48.108;11.448;2022-10-31T01:51:26;9.50;99.90
19813;DHT22;10066;48.108;11.448;2022-10-31T01:53:56;9.50;99.90
19813;DHT22;10066;48.108;11.448;2022-10-31T01:56:25;9.60;99.90
19813;DHT22;10066;48.108;11.448;2022-10-31T01:58:55;9.60;99.90
19813;DHT22;10066;48.108;11.448;2022-10-31T02:01:22;9.60;99.90
19813;DHT22;10066;48.108;11.448;2022-10-31T02:03:49;9.50;99.90
19813;DHT22;10066;48.108;11.448;2022-10-31T02:06:29;9.60;99.90
19813;DHT22;10066;48.108;11.448;2022-10-31T02:08:58;9.60;99.90
19813;DHT22;10066;48.108;11.448;2022-10-31T02:11:26;9.70;99.90
19813;DHT22;10066;48.108;11.448;2022-10-31T02:13:54;9.70;99.90
19813;DHT22;10066;48.108;11.448;2022-10-31T02:16:22;9.80;99.90
19813;DHT22;10066;48.108;11.448;2022-10-31T02:18:49;9.80;99.90
19813;DHT22;10066;48.108;11.448;2022-10-31T02:21:22;9.80;99.90
19813;DHT22;10066;48.108;11.448;2022-10-31T02:24:19;9.80;99.90
19813;DHT22;10066;48.108;11.448;2022-10-31T02:27:10;9.80;99.90
19813;DHT22;10066;48.108;11.448;2022-10-31T02:29:55;9.80;99.90
19813;DHT22;10066;48.108;11.448;2022-10-31T02:32:37;9.80;99.90
19813;DHT22;10066;48.108;11.448;2022-10-31T02:35:11;9.80;99.90
19813;DHT22;10066;48.108;11.448;2022-10-31T02:37:45;9.80;99.90
19813;DHT22;10066;48.108;11.448;2022-10-31T02:40:20;9.80;99.90
19813;DHT22;10066;48.108;11.448;2022-10-31T02:43:06;9.80;99.90
19813;DHT22;10066;48.108;11.448;2022-10-31T02:45:41;9.70;99.90
19813;DHT22;10066;48.108;11.448;2022-10-31T02:48:14;9.60;99.90
19813;DHT22;10066;48.108;11.448;2022-10-31T02:50:48;9.60;99.90
19813;DHT22;10066;48.108;11.448;2022-10-31T02:53:18;9.50;99.90
19813;DHT22;10066;48.108;11.448;2022-10-31T02:55:53;9.50;99.90
19813;DHT22;10066;48.108;11.448;2022-10-31T02:58:29;9.50;99.90
19813;DHT22;10066;48.108;11.448;2022-10-31T03:04:09;9.50;99.90
19813;DHT22;10066;48.108;11.448;2022-10-31T03:06:43;9.60;99.90
19813;DHT22;10066;48.108;11.448;2022-10-31T03:09:19;9.60;99.90
19813;DHT22;10066;48.108;11.448;2022-10-31T03:11:54;9.60;99.90
19813;DHT22;10066;48.108;11.448;2022-10-31T03:14:28;9.60;99.90
19813;DHT22;10066;48.108;11.448;2022-10-31T03:17:00;9.50;99.90
19813;DHT22;10066;48.108;11.448;2022-10-31T03:19:34;9.50;99.90
19813;DHT22;10066;48.108;11.448;2022-10-31T03:22:05;9.40;99.90
19813;DHT22;10066;48.108;11.448;2022-10-31T03:24:37;9.40;99.90
19813;DHT22;10066;48.108;11.448;2022-10-31T03:27:07;9.40;99.90
19813;DHT22;10066;48.108;11.448;2022-10-31T03:29:38;9.40;99.90
19813;DHT22;10066;48.108;11.448;2022-10-31T03:32:10;9.40;99.90
19813;DHT22;10066;48.108;11.448;2022-10-31T03:34:41;9.40;99.90
19813;DHT22;10066;48.108;11.448;2022-10-31T03:37:11;9.40;99.90
19813;DHT22;10066;48.108;11.448;2022-10-31T03:39:43;9.40;99.90
19813;DHT22;10066;48.108;11.448;2022-10-31T03:42:14;9.40;99.90
19813;DHT22;10066;48.108;11.448;2022-10-31T03:44:44;9.40;99.90
19813;DHT22;10066;48.108;11.448;2022-10-31T03:47:13;9.40;99.90
19813;DHT22;10066;48.108;11.448;2022-10-31T03:49:43;9.40;99.90
19813;DHT22;10066;48.108;11.448;2022-10-31T03:52:13;9.40;99.90
19813;DHT22;10066;48.108;11.448;2022-10-31T03:54:46;9.40;99.90
19813;DHT22;10066;48.108;11.448;2022-10-31T03:57:26;9.40;99.90
19813;DHT22;10066;48.108;11.448;2022-10-31T03:59:57;9.40;99.90
19813;DHT22;10066;48.108;11.448;2022-10-31T04:02:29;9.40;99.90
19813;DHT22;10066;48.108;11.448;2022-10-31T04:04:59;9.40;99.90
19813;DHT22;10066;48.108;11.448;2022-10-31T04:07:31;9.40;99.90
19813;DHT22;10066;48.108;11.448;2022-10-31T04:10:02;9.40;99.90
19813;DHT22;10066;48.108;11.448;2022-10-31T04:12:31;9.30;99.90
19813;DHT22;10066;48.108;11.448;2022-10-31T04:14:59;9.30;99.90
19813;DHT22;10066;48.108;11.448;2022-10-31T04:17:29;9.20;99.90
19813;DHT22;10066;48.108;11.448;2022-10-31T04:20:00;9.20;99.90
19813;DHT22;10066;48.108;11.448;2022-10-31T04:22:28;9.10;99.90
19813;DHT22;10066;48.108;11.448;2022-10-31T04:27:22;9.00;99.90
19813;DHT22;10066;48.108;11.448;2022-10-31T04:29:49;9.00;99.90
19813;DHT22;10066;48.108;11.448;2022-10-31T04:32:16;9.00;99.90
19813;DHT22;10066;48.108;11.448;2022-10-31T04:34:44;9.00;99.90
19813;DHT22;10066;48.108;11.448;2022-10-31T04:37:12;9.10;99.90
19813;DHT22;10066;48.108;11.448;2022-10-31T04:39:39;9.10;99.90
19813;DHT22;10066;48.108;11.448;2022-10-31T04:42:06;9.10;99.90
19813;DHT22;10066;48.108;11.448;2022-10-31T04:44:33;9.10;99.90
19813;DHT22;10066;48.108;11.448;2022-10-31T04:47:00;9.10;99.90
19813;DHT22;10066;48.108;11.448;2022-10-31T04:49:27;9.10;99.90
19813;DHT22;10066;48.108;11.448;2022-10-31T04:51:54;9.10;99.90
19813;DHT22;10066;48.108;11.448;2022-10-31T04:54:23;9.10;99.90
19813;DHT22;10066;48.108;11.448;2022-10-31T04:56:50;9.10;99.90
19813;DHT22;10066;48.108;11.448;2022-10-31T04:59:17;9.10;99.90
19813;DHT22;10066;48.108;11.448;2022-10-31T05:01:44;9.10;99.90
19813;DHT22;10066;48.108;11.448;2022-10-31T05:04:11;9.10;99.90
19813;DHT22;10066;48.108;11.448;2022-10-31T05:06:38;9.10;99.90
19813;DHT22;10066;48.108;11.448;2022-10-31T05:09:05;9.10;99.90
19813;DHT22;10066;48.108;11.448;2022-10-31T05:11:34;9.10;99.90
19813;DHT22;10066;48.108;11.448;2022-10-31T05:14:01;9.10;99.90
19813;DHT22;10066;48.108;11.448;2022-10-31T05:16:28;9.00;99.90
19813;DHT22;10066;48.108;11.448;2022-10-31T05:18:55;9.00;99.90
19813;DHT22;10066;48.108;11.448;2022-10-31T05:21:22;9.10;99.90
19813;DHT22;10066;48.108;11.448;2022-10-31T05:23:50;9.00;99.90
19813;DHT22;10066;48.108;11.448;2022-10-31T05:26:17;9.00;99.90
19813;DHT22;10066;48.108;11.448;2022-10-31T05:28:46;9.00;99.90
19813;DHT22;10066;48.108;11.448;2022-10-31T05:31:13;9.00;99.90
19813;DHT22;10066;48.108;11.448;2022-10-31T05:33:40;9.00;99.90
19813;DHT22;10066;48.108;11.448;2022-10-31T05:36:07;9.00;99.90
19813;DHT22;10066;48.108;11.448;2022-10-31T05:38:34;9.00;99.90
19813;DHT22;10066;48.108;11.448;2022-10-31T05:41:01;9.00;99.90
19813;DHT22;10066;48.108;11.448;2022-10-31T05:43:29;8.90;99.90
19813;DHT22;10066;48.108;11.448;2022-10-31T05:45:57;9.00;99.90
19813;DHT22;10066;48.108;11.448;2022-10-31T05:48:24;8.90;99.90
19813;DHT22;10066;48.108;11.448;2022-10-31T05:50:51;8.90;99.90
19813;DHT22;10066;48.108;11.448;2022-10-31T05:53:19;8.90;99.90
19813;DHT22;10066;48.108;11.448;2022-10-31T05:55:46;8.90;99.90
19813;DHT22;10066;48.108;11.448;2022-10-31T05:58:13;8.90;99.90
19813;DHT22;10066;48.108;11.448;2022-10-31T06:00:40;8.80;99.90
19813;DHT22;10066;48.108;11.448;2022-10-31T06:03:09;8.80;99.90
19813;DHT22;10066;48.108;11.448;2022-10-31T06:05:37;8.80;99.90
19813;DHT22;10066;48.108;11.448;2022-10-31T06:08:04;8.80;99.90
19813;DHT22;10066;48.108;11.448;2022-10-31T06:10:31;8.80;99.90
19813;DHT22;10066;48.108;11.448;2022-10-31T06:12:58;8.80;99.90
19813;DHT22;10066;48.108;11.448;2022-10-31T06:15:25;8.80;99.90
19813;DHT22;10066;48.108;11.448;2022-10-31T06:18:00;8.80;99.90
19813;DHT22;10066;48.108;11.448;2022-10-31T06:20:29;8.80;99.90
19813;DHT22;10066;48.108;11.448;2022-10-31T06:22:56;8.70;99.90
19813;DHT22;10066;48.108;11.448;2022-10-31T06:25:24;8.80;99.90
19813;DHT22;10066;48.108;11.448;2022-10-31T06:27:50;8.70;99.90
19813;DHT22;10066;48.108;11.448;2022-10-31T06:30:17;8.80;99.90
19813;DHT22;10066;48.108;11.448;2022-10-31T06:32:44;8.80;99.90
19813;DHT22;10066;48.108;11.448;2022-10-31T06:35:11;8.80;99.90
19813;DHT22;10066;48.108;11.448;2022-10-31T06:37:40;8.80;99.90
19813;DHT22;10066;48.108;11.448;2022-10-31T06:40:08;8.80;99.90
19813;DHT22;10066;48.108;11.448;2022-10-31T06:42:35;8.80;99.90
19813;DHT22;10066;48.108;11.448;2022-10-31T06:45:03;8.80;99.90
19813;DHT22;10066;48.108;11.448;2022-10-31T06:47:30;8.90;99.90
19813;DHT22;10066;48.108;11.448;2022-10-31T06:49:57;8.90;99.90
19813;DHT22;10066;48.108;11.448;2022-10-31T06:52:24;8.90;99.90
19813;DHT22;10066;48.108;11.448;2022-10-31T06:54:52;9.00;99.90
19813;DHT22;10066;48.108;11.448;2022-10-31T06:57:19;9.10;99.90
19813;DHT22;10066;48.108;11.448;2022-10-31T06:59:46;9.10;99.90
19813;DHT22;10066;48.108;11.448;2022-10-31T07:02:13;9.10;99.90
19813;DHT22;10066;48.108;11.448;2022-10-31T07:04:40;9.10;99.90
19813;DHT22;10066;48.108;11.448;2022-10-31T07:07:07;9.10;99.90
19813;DHT22;10066;48.108;11.448;2022-10-31T07:09:34;9.10;99.90
19813;DHT22;10066;48.108;11.448;2022-10-31T07:12:03;9.10;99.90
19813;DHT22;10066;48.108;11.448;2022-10-31T07:14:30;9.20;99.90
19813;DHT22;10066;48.108;11.448;2022-10-31T07:16:57;9.30;99.90
19813;DHT22;10066;48.108;11.448;2022-10-31T07:19:24;9.30;99.90
19813;DHT22;10066;48.108;11.448;2022-10-31T07:21:52;9.40;99.90
19813;DHT22;10066;48.108;11.448;2022-10-31T07:24:19;9.40;99.90
19813;DHT22;10066;48.108;11.448;2022-10-31T07:26:46;9.50;99.90
19813;DHT22;10066;48.108;11.448;2022-10-31T07:29:14;9.50;99.90
19813;DHT22;10066;48.108;11.448;2022-10-31T07:31:41;9.60;99.90
19813;DHT22;10066;48.108;11.448;2022-10-31T07:34:09;9.70;99.90
19813;DHT22;10066;48.108;11.448;2022-10-31T07:36:36;9.80;99.90
19813;DHT22;10066;48.108;11.448;2022-10-31T07:39:03;9.90;99.90
19813;DHT22;10066;48.108;11.448;2022-10-31T07:41:30;10.00;99.90
19813;DHT22;10066;48.108;11.448;2022-10-31T07:43:57;10.00;99.90
19813;DHT22;10066;48.108;11.448;2022-10-31T07:46:26;10.20;99.90
19813;DHT22;10066;48.108;11.448;2022-10-31T07:48:53;10.30;99.90
19813;DHT22;10066;48.108;11.448;2022-10-31T07:51:20;10.40;99.90
19813;DHT22;10066;48.108;11.448;2022-10-31T07:53:49;10.50;99.90
19813;DHT22;10066;48.108;11.448;2022-10-31T07:56:16;10.60;99.90
19813;DHT22;10066;48.108;11.448;2022-10-31T07:58:43;10.70;99.90
19813;DHT22;10066;48.108;11.448;2022-10-31T08:01:10;10.80;99.90
19813;DHT22;10066;48.108;11.448;2022-10-31T08:03:38;10.90;99.90
19813;DHT22;10066;48.108;11.448;2022-10-31T08:06:06;11.00;99.90
19813;DHT22;10066;48.108;11.448;2022-10-31T08:08:33;11.10;99.90
19813;DHT22;10066;48.108;11.448;2022-10-31T08:11:00;11.30;99.90
19813;DHT22;10066;48.108;11.448;2022-10-31T08:13:27;11.40;99.90
19813;DHT22;10066;48.108;11.448;2022-10-31T08:15:54;11.60;99.90
19813;DHT22;10066;48.108;11.448;2022-10-31T08:18:21;11.70;99.90
19813;DHT22;10066;48.108;11.448;2022-10-31T08:20:50;11.80;99.90
19813;DHT22;10066;48.108;11.448;2022-10-31T08:23:17;12.00;99.90
19813;DHT22;10066;48.108;11.448;2022-10-31T08:25:44;12.10;99.90
19813;DHT22;10066;48.108;11.448;2022-10-31T08:28:13;12.30;99.90
19813;DHT22;10066;48.108;11.448;2022-10-31T08:30:41;12.40;99.90
19813;DHT22;10066;48.108;11.448;2022-10-31T08:33:10;12.60;99.90
19813;DHT22;10066;48.108;11.448;2022-10-31T08:35:37;12.70;99.90
19813;DHT22;10066;48.108;11.448;2022-10-31T08:38:07;12.90;99.90
19813;DHT22;10066;48.108;11.448;2022-10-31T08:40:34;13.10;99.90
19813;DHT22;10066;48.108;11.448;2022-10-31T08:43:04;13.20;99.90
19813;DHT22;10066;48.108;11.448;2022-10-31T08:45:32;13.30;99.90
19813;DHT22;10066;48.108;11.448;2022-10-31T08:48:00;13.40;99.90
19813;DHT22;10066;48.108;11.448;2022-10-31T08:50:28;13.60;99.90
19813;DHT22;10066;48.108;11.448;2022-10-31T08:53:00;13.70;99.90
19813;DHT22;10066;48.108;11.448;2022-10-31T08:55:29;13.80;99.90
19813;DHT22;10066;48.108;11.448;2022-10-31T08:57:56;13.90;99.90
19813;DHT22;10066;48.108;11.448;2022-10-31T09:00:23;14.10;99.90
19813;DHT22;10066;48.108;11.448;2022-10-31T09:02:55;14.20;99.90
19813;DHT22;10066;48.108;11.448;2022-10-31T09:05:23;14.30;99.90
19813;DHT22;10066;48.108;11.448;2022-10-31T09:07:50;14.50;99.90
19813;DHT22;10066;48.108;11.448;2022-10-31T09:10:17;14.60;99.90
19813;DHT22;10066;48.108;11.448;2022-10-31T09:12:46;14.70;99.90
19813;DHT22;10066;48.108;11.448;2022-10-31T09:15:12;14.90;99.90
19813;DHT22;10066;48.108;11.448;2022-10-31T09:17:39;15.00;99.90
19813;DHT22;10066;48.108;11.448;2022-10-31T09:20:12;15.10;99.90
19813;DHT22;10066;48.108;11.448;2022-10-31T09:22:40;15.20;99.90
19813;DHT22;10066;48.108;11.448;2022-10-31T09:25:08;15.40;99.90
19813;DHT22;10066;48.108;11.448;2022-10-31T09:27:35;15.50;99.90
19813;DHT22;10066;48.108;11.448;2022-10-31T09:30:05;15.60;99.90
19813;DHT22;10066;48.108;11.448;2022-10-31T09:32:32;15.70;99.90
19813;DHT22;10066;48.108;11.448;2022-10-31T09:34:59;15.80;99.90
19813;DHT22;10066;48.108;11.448;2022-10-31T09:37:26;15.90;99.90
19813;DHT22;10066;48.108;11.448;2022-10-31T09:39:53;16.00;99.90
19813;DHT22;10066;48.108;11.448;2022-10-31T09:42:34;16.10;99.90
19813;DHT22;10066;48.108;11.448;2022-10-31T09:45:10;16.20;99.90
19813;DHT22;10066;48.108;11.448;2022-10-31T09:47:45;16.30;99.90
19813;DHT22;10066;48.108;11.448;2022-10-31T09:50:19;16.40;99.90
19813;DHT22;10066;48.108;11.448;2022-10-31T09:52:52;16.50;99.90
19813;DHT22;10066;48.108;11.448;2022-10-31T09:55:27;16.60;99.90
19813;DHT22;10066;48.108;11.448;2022-10-31T09:57:58;16.70;99.90
19813;DHT22;10066;48.108;11.448;2022-10-31T10:00:27;16.80;99.90
19813;DHT22;10066;48.108;11.448;2022-10-31T10:03:01;16.90;99.90
19813;DHT22;10066;48.108;11.448;2022-10-31T10:05:37;16.90;99.90
19813;DHT22;10066;48.108;11.448;2022-10-31T10:08:10;17.00;99.90
19813;DHT22;10066;48.108;11.448;2022-10-31T10:10:47;17.00;99.90
19813;DHT22;10066;48.108;11.448;2022-10-31T10:13:32;17.10;99.90
19813;DHT22;10066;48.108;11.448;2022-10-31T10:16:12;17.20;99.90
19813;DHT22;10066;48.108;11.448;2022-10-31T10:18:55;17.20;99.90
19813;DHT22;10066;48.108;11.448;2022-10-31T10:21:32;17.30;99.90
19813;DHT22;10066;48.108;11.448;2022-10-31T10:24:12;17.40;99.90
19813;DHT22;10066;48.108;11.448;2022-10-31T10:26:49;17.50;99.90
19813;DHT22;10066;48.108;11.448;2022-10-31T10:29:31;17.60;99.90
19813;DHT22;10066;48.108;11.448;2022-10-31T10:32:05;17.70;99.90
19813;DHT22;10066;48.108;11.448;2022-10-31T10:34:41;17.80;99.90
19813;DHT22;10066;48.108;11.448;2022-10-31T10:37:16;17.90;99.90
19813;DHT22;10066;48.108;11.448;2022-10-31T10:39:49;18.00;99.90
19813;DHT22;10066;48.108;11.448;2022-10-31T10:42:17;18.10;99.90
19813;DHT22;10066;48.108;11.448;2022-10-31T10:45:15;18.20;99.90
19813;DHT22;10066;48.108;11.448;2022-10-31T10:48:06;18.30;99.90
19813;DHT22;10066;48.108;11.448;2022-10-31T10:50:40;18.40;99.90
19813;DHT22;10066;48.108;11.448;2022-10-31T10:53:17;18.50;99.90
19813;DHT22;10066;48.108;11.448;2022-10-31T10:55:52;18.50;99.90
19813;DHT22;10066;48.108;11.448;2022-10-31T10:58:22;18.60;99.90
19813;DHT22;10066;48.108;11.448;2022-10-31T11:00:50;18.60;99.90
19813;DHT22;10066;48.108;11.448;2022-10-31T11:03:20;18.60;99.90
19813;DHT22;10066;48.108;11.448;2022-10-31T11:05:50;18.60;99.90
19813;DHT22;10066;48.108;11.448;2022-10-31T11:08:24;18.70;99.90
19813;DHT22;10066;48.108;11.448;2022-10-31T11:10:59;18.70;99.90
19813;DHT22;10066;48.108;11.448;2022-10-31T11:13:27;18.70;99.90
19813;DHT22;10066;48.108;11.448;2022-10-31T11:15:59;18.70;99.90
19813;DHT22;10066;48.108;11.448;2022-10-31T11:18:30;18.80;99.90
19813;DHT22;10066;48.108;11.448;2022-10-31T11:21:00;18.80;99.90
19813;DHT22;10066;48.108;11.448;2022-10-31T11:23:28;18.80;99.90
19813;DHT22;10066;48.108;11.448;2022-10-31T11:25:57;18.80;99.90
19813;DHT22;10066;48.108;11.448;2022-10-31T11:28:24;18.90;99.90
19813;DHT22;10066;48.108;11.448;2022-10-31T11:30:53;18.90;99.90
19813;DHT22;10066;48.108;11.448;2022-10-31T11:33:27;18.90;99.90
19813;DHT22;10066;48.108;11.448;2022-10-31T11:35:57;19.00;99.90
19813;DHT22;10066;48.108;11.448;2022-10-31T11:38:29;19.00;99.90
19813;DHT22;10066;48.108;11.448;2022-10-31T11:40:59;19.10;99.90
19813;DHT22;10066;48.108;11.448;2022-10-31T11:43:29;19.20;99.90
19813;DHT22;10066;48.108;11.448;2022-10-31T11:48:25;19.30;99.90
19813;DHT22;10066;48.108;11.448;2022-10-31T11:50:56;19.30;99.90
19813;DHT22;10066;48.108;11.448;2022-10-31T11:53:27;19.40;99.90
19813;DHT22;10066;48.108;11.448;2022-10-31T11:56:09;19.50;99.90
19813;DHT22;10066;48.108;11.448;2022-10-31T11:58:36;19.50;99.90
19813;DHT22;10066;48.108;11.448;2022-10-31T12:01:04;19.50;99.90
19813;DHT22;10066;48.108;11.448;2022-10-31T12:03:48;19.60;99.90
19813;DHT22;10066;48.108;11.448;2022-10-31T12:06:22;19.60;99.90
19813;DHT22;10066;48.108;11.448;2022-10-31T12:08:50;19.60;99.90
19813;DHT22;10066;48.108;11.448;2022-10-31T12:11:37;19.60;99.90
19813;DHT22;10066;48.108;11.448;2022-10-31T12:14:15;19.60;99.90
19813;DHT22;10066;48.108;11.448;2022-10-31T12:16:51;19.60;99.90
19813;DHT22;10066;48.108;11.448;2022-10-31T12:19:27;19.60;99.90
19813;DHT22;10066;48.108;11.448;2022-10-31T12:22:05;19.60;99.90
19813;DHT22;10066;48.108;11.448;2022-10-31T12:24:53;19.60;99.90
19813;DHT22;10066;48.108;11.448;2022-10-31T12:27:37;19.50;99.90
19813;DHT22;10066;48.108;11.448;2022-10-31T12:30:15;19.50;99.90
19813;DHT22;10066;48.108;11.448;2022-10-31T12:33:03;19.50;99.90
19813;DHT22;10066;48.108;11.448;2022-10-31T12:35:43;19.50;99.90
19813;DHT22;10066;48.108;11.448;2022-10-31T12:38:38;19.40;99.90
19813;DHT22;10066;48.108;11.448;2022-10-31T12:44:06;19.40;99.90
19813;DHT22;10066;48.108;11.448;2022-10-31T12:46:50;19.40;99.90
19813;DHT22;10066;48.108;11.448;2022-10-31T12:49:31;19.40;99.90
19813;DHT22;10066;48.108;11.448;2022-10-31T12:52:22;19.50;99.90
19813;DHT22;10066;48.108;11.448;2022-10-31T12:55:15;19.40;99.90
19813;DHT22;10066;48.108;11.448;2022-10-31T12:57:46;19.50;99.90
19813;DHT22;10066;48.108;11.448;2022-10-31T13:00:16;19.50;99.90
19813;DHT22;10066;48.108;11.448;2022-10-31T13:02:48;19.50;99.90
19813;DHT22;10066;48.108;11.448;2022-10-31T13:05:19;19.60;99.90
19813;DHT22;10066;48.108;11.448;2022-10-31T13:07:52;19.60;99.90
19813;DHT22;10066;48.108;11.448;2022-10-31T13:10:25;19.60;99.90
19813;DHT22;10066;48.108;11.448;2022-10-31T13:12:57;19.70;99.90
19813;DHT22;10066;48.108;11.448;2022-10-31T13:15:27;19.70;99.90
19813;DHT22;10066;48.108;11.448;2022-10-31T13:17:57;19.70;99.90
19813;DHT22;10066;48.108;11.448;2022-10-31T13:20:29;19.70;99.90
19813;DHT22;10066;48.108;11.448;2022-10-31T13:23:03;19.70;99.90
19813;DHT22;10066;48.108;11.448;2022-10-31T13:25:38;19.70;99.90
19813;DHT22;10066;48.108;11.448;2022-10-31T13:28:17;19.70;99.90
19813;DHT22;10066;48.108;11.448;2022-10-31T13:30:48;19.70;99.90
19813;DHT22;10066;48.108;11.448;2022-10-31T13:33:18;19.70;99.90
19813;DHT22;10066;48.108;11.448;2022-10-31T13:35:56;19.70;99.90
19813;DHT22;10066;48.108;11.448;2022-10-31T13:38:33;19.70;99.90
19813;DHT22;10066;48.108;11.448;2022-10-31T13:41:06;19.70;99.90
19813;DHT22;10066;48.108;11.448;2022-10-31T13:43:53;19.70;99.90
19813;DHT22;10066;48.108;11.448;2022-10-31T13:46:33;19.60;99.90
19813;DHT22;10066;48.108;11.448;2022-10-31T13:49:02;19.60;99.90
19813;DHT22;10066;48.108;11.448;2022-10-31T13:51:30;19.50;99.90
19813;DHT22;10066;48.108;11.448;2022-10-31T13:54:01;19.50;99.90
19813;DHT22;10066;48.108;11.448;2022-10-31T13:56:30;19.40;99.90
19813;DHT22;10066;48.108;11.448;2022-10-31T13:59:15;19.30;99.90
19813;DHT22;10066;48.108;11.448;2022-10-31T14:01:54;19.30;99.90
19813;DHT22;10066;48.108;11.448;2022-10-31T14:04:23;19.20;99.90
19813;DHT22;10066;48.108;11.448;2022-10-31T14:06:57;19.20;99.90
19813;DHT22;10066;48.108;11.448;2022-10-31T14:09:28;19.20;99.90
19813;DHT22;10066;48.108;11.448;2022-10-31T14:11:59;19.10;99.90
19813;DHT22;10066;48.108;11.448;2022-10-31T14:14:33;19.10;99.90
19813;DHT22;10066;48.108;11.448;2022-10-31T14:17:02;19.10;99.90
19813;DHT22;10066;48.108;11.448;2022-10-31T14:19:29;19.00;99.90
19813;DHT22;10066;48.108;11.448;2022-10-31T14:21:56;19.00;99.90
19813;DHT22;10066;48.108;11.448;2022-10-31T14:24:36;19.00;99.90
19813;DHT22;10066;48.108;11.448;2022-10-31T14:27:33;19.00;99.90
19813;DHT22;10066;48.108;11.448;2022-10-31T14:30:14;19.00;99.90
19813;DHT22;10066;48.108;11.448;2022-10-31T14:32:43;19.00;99.90
19813;DHT22;10066;48.108;11.448;2022-10-31T14:35:15;19.00;99.90
19813;DHT22;10066;48.108;11.448;2022-10-31T14:38:01;18.90;99.90
19813;DHT22;10066;48.108;11.448;2022-10-31T14:40:39;18.90;99.90
19813;DHT22;10066;48.108;11.448;2022-10-31T14:43:33;18.90;99.90
19813;DHT22;10066;48.108;11.448;2022-10-31T14:46:05;18.90;99.90
19813;DHT22;10066;48.108;11.448;2022-10-31T14:48:57;18.80;99.90
19813;DHT22;10066;48.108;11.448;2022-10-31T14:51:33;18.80;99.90
19813;DHT22;10066;48.108;11.448;2022-10-31T14:54:02;18.70;99.90
19813;DHT22;10066;48.108;11.448;2022-10-31T14:56:34;18.70;99.90
19813;DHT22;10066;48.108;11.448;2022-10-31T14:59:06;18.70;99.90
19813;DHT22;10066;48.108;11.448;2022-10-31T15:01:38;18.70;99.90
19813;DHT22;10066;48.108;11.448;2022-10-31T15:04:11;18.60;99.90
19813;DHT22;10066;48.108;11.448;2022-10-31T15:06:42;18.60;99.90
19813;DHT22;10066;48.108;11.448;2022-10-31T15:09:22;18.50;99.90
19813;DHT22;10066;48.108;11.448;2022-10-31T15:11:50;18.40;99.90
19813;DHT22;10066;48.108;11.448;2022-10-31T15:14:31;18.40;99.90
19813;DHT22;10066;48.108;11.448;2022-10-31T15:17:01;18.30;99.90
19813;DHT22;10066;48.108;11.448;2022-10-31T15:19:30;18.20;99.90
19813;DHT22;10066;48.108;11.448;2022-10-31T15:21:58;18.10;99.90
19813;DHT22;10066;48.108;11.448;2022-10-31T15:24:32;18.00;99.90
19813;DHT22;10066;48.108;11.448;2022-10-31T15:27:03;17.90;99.90
19813;DHT22;10066;48.108;11.448;2022-10-31T15:29:32;17.80;99.90
19813;DHT22;10066;48.108;11.448;2022-10-31T15:32:09;17.70;99.90
19813;DHT22;10066;48.108;11.448;2022-10-31T15:34:43;17.70;99.90
19813;DHT22;10066;48.108;11.448;2022-10-31T15:37:11;17.60;99.90
19813;DHT22;10066;48.108;11.448;2022-10-31T15:39:39;17.60;99.90
19813;DHT22;10066;48.108;11.448;2022-10-31T15:42:20;17.50;99.90
19813;DHT22;10066;48.108;11.448;2022-10-31T15:44:51;17.40;99.90
19813;DHT22;10066;48.108;11.448;2022-10-31T15:47:21;17.40;99.90
19813;DHT22;10066;48.108;11.448;2022-10-31T15:49:51;17.30;99.90
19813;DHT22;10066;48.108;11.448;2022-10-31T15:52:27;17.30;99.90
19813;DHT22;10066;48.108;11.448;2022-10-31T15:54:58;17.20;99.90
19813;DHT22;10066;48.108;11.448;2022-10-31T15:57:25;17.10;99.90